LGMK

Mikonos Airport

Mykonos Island, Greece
TAF LGMK 241700Z 2418/2503 20012KT 9999 FEW020
Issued Valid From Valid To
Sep-24 @ 17:00 UTC
(2 hours ago)
Sep-24 @ 18:00 UTC
(an hour ago)
Sep-25 @ 03:00 UTC
(in 8 hours)
Sep-24 @ 18:00 to Sep-25 @ 03:00
TAF LGMK 241700Z 2418/2503 20012KT 9999 FEW020
Wind Visibility Clouds
200° at 12 knots 10,000+ meters
  • Few at 2,000' AGL
TAF LGMK 241700Z 2418/2503 20012KT 9999 FEW020
Issued Sep-24 @ 17:00 UTC
(2 hours ago)
Valid From Sep-24 @ 18:00 UTC
(an hour ago)
Valid To Sep-25 @ 03:00 UTC
(in 8 hours)
Sep-24 @ 18:00 - Sep-25 @ 03:00
Wind Visibility
200° at 12 knots 10,000+ meters
Clouds
  • Few at 2,000' AGL